createdAt,value
2023-04-03T00:00:36.754Z,8.34
2023-04-03T00:03:03.503Z,8.19
2023-04-03T00:05:30.288Z,8.34
2023-04-03T00:07:56.834Z,8.33
2023-04-03T00:10:23.457Z,8.27
2023-04-03T00:12:49.962Z,8.30
2023-04-03T00:15:16.539Z,8.27
2023-04-03T00:17:43.167Z,8.16
2023-04-03T00:20:10.069Z,8.19
2023-04-03T00:22:36.596Z,8.09
2023-04-03T00:25:04.129Z,7.99
2023-04-03T00:27:30.675Z,7.89
2023-04-03T00:29:57.107Z,7.96
2023-04-03T00:32:23.612Z,7.80
2023-04-03T00:34:50.306Z,7.96
2023-04-03T00:37:16.780Z,7.92
2023-04-03T00:39:43.243Z,7.93
2023-04-03T00:42:09.725Z,7.91
2023-04-03T00:44:36.156Z,7.97
2023-04-03T00:47:08.106Z,8.05
2023-04-03T00:49:35.296Z,8.08
2023-04-03T00:52:02.602Z,7.87
2023-04-03T00:54:29.129Z,7.81
2023-04-03T00:56:57.599Z,7.76
2023-04-03T00:59:31.261Z,7.70
2023-04-03T01:01:58.201Z,7.73
2023-04-03T01:04:39.522Z,7.73
2023-04-03T01:07:16.334Z,7.84
2023-04-03T01:09:44.085Z,7.73
2023-04-03T01:12:38.681Z,7.75
2023-04-03T01:15:08.774Z,7.67
2023-04-03T01:17:51.476Z,7.59
2023-04-03T01:20:34.019Z,7.43
2023-04-03T01:23:09.993Z,7.38
2023-04-03T01:25:39.292Z,7.28
2023-04-03T01:28:08.400Z,7.39
2023-04-03T01:30:42.300Z,7.29
2023-04-03T01:33:08.909Z,7.14
2023-04-03T01:35:35.455Z,7.15
2023-04-03T01:38:02.007Z,7.07
2023-04-03T01:40:28.477Z,7.04
2023-04-03T01:42:54.915Z,7.04
2023-04-03T01:45:21.400Z,6.86
2023-04-03T01:47:47.894Z,6.86
2023-04-03T01:50:14.517Z,6.85
2023-04-03T01:52:41.016Z,6.78
2023-04-03T01:55:07.885Z,6.77
2023-04-03T01:57:34.403Z,6.70
2023-04-03T02:00:00.999Z,6.71
2023-04-03T02:02:27.513Z,6.71
2023-04-03T02:04:54.192Z,6.70
2023-04-03T02:07:20.697Z,6.61
2023-04-03T02:09:47.225Z,6.59
2023-04-03T02:12:13.729Z,6.62
2023-04-03T02:14:40.400Z,6.59
2023-04-03T02:17:09.638Z,6.53
2023-04-03T02:19:36.731Z,6.63
2023-04-03T02:22:06.351Z,6.61
2023-04-03T02:24:33.042Z,6.67
2023-04-03T02:26:59.965Z,6.68
2023-04-03T02:29:26.588Z,6.72
2023-04-03T02:31:53.122Z,6.75
2023-04-03T02:34:19.600Z,6.64
2023-04-03T02:36:46.165Z,6.63
2023-04-03T02:39:12.694Z,6.66
2023-04-03T02:41:39.138Z,6.70
2023-04-03T02:44:07.421Z,6.55
2023-04-03T02:46:34.778Z,6.61
2023-04-03T02:49:01.410Z,6.44
2023-04-03T02:51:27.929Z,6.32
2023-04-03T02:53:54.565Z,6.32
2023-04-03T02:56:21.452Z,6.23
2023-04-03T02:58:48.041Z,6.30
2023-04-03T03:01:14.897Z,6.33
2023-04-03T03:03:41.412Z,6.30
2023-04-03T03:06:14.185Z,6.29
2023-04-03T03:08:41.074Z,6.33
2023-04-03T03:11:07.645Z,6.34
2023-04-03T03:13:35.336Z,6.35
2023-04-03T03:16:02.303Z,6.29
2023-04-03T03:18:29.133Z,6.25
2023-04-03T03:20:58.201Z,6.33
2023-04-03T03:23:27.064Z,6.31
2023-04-03T03:25:58.344Z,6.24
2023-04-03T03:28:25.385Z,6.12
2023-04-03T03:30:52.148Z,6.06
2023-04-03T03:33:19.578Z,6.13
2023-04-03T03:35:46.199Z,6.08
2023-04-03T03:38:13.181Z,6.12
2023-04-03T03:40:39.819Z,5.96
2023-04-03T03:43:06.500Z,6.05
2023-04-03T03:45:33.122Z,6.07
2023-04-03T03:47:59.676Z,6.12
2023-04-03T03:50:26.227Z,6.08
2023-04-03T03:52:52.694Z,6.16
2023-04-03T03:55:19.354Z,6.11
2023-04-03T03:57:46.002Z,6.15
2023-04-03T04:00:12.898Z,6.14
2023-04-03T04:02:39.530Z,6.16
2023-04-03T04:05:06.435Z,6.14
2023-04-03T04:07:32.963Z,6.09
2023-04-03T04:09:59.421Z,6.18
2023-04-03T04:12:26.142Z,6.25
2023-04-03T04:14:52.647Z,6.12
2023-04-03T04:17:20.794Z,6.08
2023-04-03T04:19:47.313Z,5.99
2023-04-03T04:22:13.821Z,6.12
2023-04-03T04:24:40.319Z,6.08
2023-04-03T04:27:06.862Z,6.10
2023-04-03T04:29:36.721Z,6.03
2023-04-03T04:32:04.756Z,6.12
2023-04-03T04:34:31.593Z,6.16
2023-04-03T04:36:58.244Z,6.13
2023-04-03T04:39:24.787Z,6.08
2023-04-03T04:41:51.418Z,6.11
2023-04-03T04:44:17.885Z,6.00
2023-04-03T04:46:44.374Z,6.02
2023-04-03T04:49:11.060Z,6.07
2023-04-03T04:51:48.315Z,6.13
2023-04-03T04:54:18.948Z,6.06
2023-04-03T04:56:45.542Z,5.99
2023-04-03T04:59:12.030Z,6.05
2023-04-03T05:01:38.617Z,6.05
2023-04-03T05:04:05.583Z,6.04
2023-04-03T05:06:33.081Z,6.09
2023-04-03T05:09:00.224Z,6.12
2023-04-03T05:11:27.185Z,6.13
2023-04-03T05:13:53.775Z,6.01
2023-04-03T05:16:20.315Z,6.05
2023-04-03T05:18:46.936Z,5.98
2023-04-03T05:21:13.662Z,5.98
2023-04-03T05:23:40.189Z,6.22
2023-04-03T05:26:06.888Z,6.19
2023-04-03T05:28:34.044Z,6.05
2023-04-03T05:31:00.708Z,6.12
2023-04-03T05:33:27.690Z,6.18
2023-04-03T05:35:55.656Z,6.09
2023-04-03T05:38:22.564Z,6.12
2023-04-03T05:40:49.055Z,6.05
2023-04-03T05:43:15.885Z,6.14
2023-04-03T05:45:43.626Z,6.12
2023-04-03T05:48:11.540Z,6.00
2023-04-03T05:50:42.421Z,5.95
2023-04-03T05:53:17.414Z,6.00
2023-04-03T05:55:43.902Z,6.02
2023-04-03T05:58:11.748Z,5.99
2023-04-03T06:00:38.535Z,5.88
2023-04-03T06:03:05.261Z,5.96
2023-04-03T06:05:32.038Z,5.87
2023-04-03T06:07:58.741Z,5.87
2023-04-03T06:10:25.310Z,5.84
2023-04-03T06:12:52.344Z,5.96
2023-04-03T06:15:19.004Z,6.08
2023-04-03T06:17:45.758Z,6.05
2023-04-03T06:20:13.319Z,6.02
2023-04-03T06:22:40.377Z,6.02
2023-04-03T06:25:07.410Z,5.97
2023-04-03T06:27:33.951Z,6.07
2023-04-03T06:30:00.572Z,6.18
2023-04-03T06:32:27.570Z,6.02
2023-04-03T06:34:54.589Z,5.97
2023-04-03T06:37:23.381Z,5.99
2023-04-03T06:39:49.961Z,5.99
2023-04-03T06:42:17.160Z,5.96
2023-04-03T06:44:43.705Z,6.05
2023-04-03T06:47:17.618Z,6.17
2023-04-03T06:49:44.690Z,6.13
2023-04-03T06:52:13.141Z,6.12
2023-04-03T06:54:41.065Z,6.19
2023-04-03T06:57:08.625Z,6.21
2023-04-03T06:59:36.001Z,6.13
2023-04-03T07:02:02.591Z,6.22
2023-04-03T07:04:29.325Z,6.28
2023-04-03T07:06:55.852Z,6.28
2023-04-03T07:09:22.625Z,6.23
2023-04-03T07:11:49.279Z,6.33
2023-04-03T07:14:15.924Z,6.48
2023-04-03T07:16:42.848Z,6.38
2023-04-03T07:19:09.998Z,6.89
2023-04-03T07:21:36.802Z,6.95
2023-04-03T07:24:03.703Z,6.81
2023-04-03T07:26:30.251Z,6.85
2023-04-03T07:28:57.109Z,6.97
2023-04-03T07:31:24.078Z,6.83
2023-04-03T07:33:50.980Z,6.97
2023-04-03T07:36:20.439Z,7.22
2023-04-03T07:38:47.018Z,7.13
2023-04-03T07:41:16.827Z,7.12
2023-04-03T07:43:43.351Z,6.96
2023-04-03T07:46:10.381Z,7.20
2023-04-03T07:48:37.236Z,7.32
2023-04-03T07:51:05.105Z,7.68
2023-04-03T07:53:32.336Z,7.95
2023-04-03T07:55:59.733Z,8.16
2023-04-03T07:58:26.711Z,8.83
2023-04-03T08:00:53.414Z,8.90
2023-04-03T08:03:20.125Z,8.68
2023-04-03T08:05:49.414Z,8.71
2023-04-03T08:08:21.182Z,8.64
2023-04-03T08:10:55.001Z,8.54
2023-04-03T08:13:21.619Z,8.35
2023-04-03T08:15:48.599Z,7.87
2023-04-03T08:18:16.982Z,7.95
2023-04-03T08:20:44.037Z,7.86
2023-04-03T08:23:11.392Z,7.82
2023-04-03T08:25:42.370Z,7.70
2023-04-03T08:28:10.089Z,7.85
2023-04-03T08:30:37.146Z,7.81
2023-04-03T08:33:04.954Z,7.90
2023-04-03T08:35:31.689Z,7.81
2023-04-03T08:37:58.325Z,7.72
2023-04-03T08:40:25.565Z,7.75
2023-04-03T08:43:20.435Z,7.52
2023-04-03T08:45:52.703Z,7.53
2023-04-03T08:48:30.492Z,7.70
2023-04-03T08:51:12.195Z,7.71
2023-04-03T08:53:43.287Z,7.09
2023-04-03T08:56:11.119Z,7.23
2023-04-03T08:58:48.786Z,7.36
2023-04-03T09:01:22.375Z,7.11
2023-04-03T09:03:48.991Z,7.15
2023-04-03T09:06:31.557Z,7.23
2023-04-03T09:09:22.928Z,7.26
2023-04-03T09:12:01.306Z,7.11
2023-04-03T09:14:38.099Z,7.37
2023-04-03T09:17:14.891Z,7.29
2023-04-03T09:20:03.279Z,7.45
2023-04-03T09:22:36.491Z,7.72
2023-04-03T09:25:14.841Z,7.85
2023-04-03T09:27:41.395Z,7.67
2023-04-03T09:30:17.970Z,7.70
2023-04-03T09:32:50.947Z,7.89
2023-04-03T09:35:36.451Z,7.95
2023-04-03T09:38:14.279Z,8.12
2023-04-03T09:40:52.469Z,8.33
2023-04-03T09:43:28.444Z,8.43
2023-04-03T09:45:56.599Z,8.48
2023-04-03T09:48:26.333Z,8.37
2023-04-03T09:50:56.624Z,8.34
2023-04-03T09:53:31.152Z,8.36
2023-04-03T09:55:58.004Z,8.58
2023-04-03T09:58:36.054Z,8.63
2023-04-03T10:01:34.811Z,8.66
2023-04-03T10:04:07.330Z,8.36
2023-04-03T10:06:41.703Z,8.52
2023-04-03T10:09:22.123Z,8.57
2023-04-03T10:11:59.253Z,8.41
2023-04-03T10:14:26.261Z,8.53
2023-04-03T10:17:04.497Z,8.50
2023-04-03T10:19:37.738Z,8.52
2023-04-03T10:22:36.597Z,8.62
2023-04-03T10:25:15.773Z,8.73
2023-04-03T10:28:07.413Z,8.41
2023-04-03T10:30:41.540Z,8.63
2023-04-03T10:33:23.295Z,8.67
2023-04-03T10:36:02.055Z,8.49
2023-04-03T10:38:49.547Z,8.69
2023-04-03T10:41:30.046Z,8.56
2023-04-03T10:44:08.403Z,8.64
2023-04-03T10:46:54.685Z,8.79
2023-04-03T10:49:32.339Z,9.12
2023-04-03T10:52:13.984Z,9.14
2023-04-03T10:55:19.241Z,9.79
2023-04-03T10:57:47.292Z,9.92
2023-04-03T11:00:20.826Z,10.23
2023-04-03T11:03:01.172Z,10.34
2023-04-03T11:05:35.417Z,10.51
2023-04-03T11:08:14.567Z,10.46
2023-04-03T11:10:45.897Z,10.76
2023-04-03T11:13:21.646Z,10.59
2023-04-03T11:15:48.963Z,10.96
2023-04-03T11:18:38.719Z,11.46
2023-04-03T11:21:13.894Z,12.32
2023-04-03T11:23:49.493Z,12.05
2023-04-03T11:26:23.743Z,11.46
2023-04-03T11:29:02.717Z,11.63
2023-04-03T11:31:44.385Z,11.52
2023-04-03T11:34:37.177Z,11.58
2023-04-03T11:37:13.843Z,12.04
2023-04-03T11:39:48.969Z,12.03
2023-04-03T11:42:26.580Z,12.34
2023-04-03T11:45:25.635Z,11.96
2023-04-03T11:48:30.544Z,11.17
2023-04-03T11:50:58.840Z,11.32
2023-04-03T11:53:40.253Z,10.90
2023-04-03T11:56:24.821Z,10.87
2023-04-03T11:59:13.218Z,10.82
2023-04-03T12:01:53.753Z,10.53
2023-04-03T12:04:26.930Z,10.65
2023-04-03T12:07:13.566Z,10.65
2023-04-03T12:09:57.278Z,10.48
2023-04-03T12:12:28.709Z,10.77
2023-04-03T12:14:55.378Z,10.70
2023-04-03T12:17:27.766Z,10.65
2023-04-03T12:19:54.415Z,11.18
2023-04-03T12:22:22.280Z,10.64
2023-04-03T12:24:53.701Z,10.61
2023-04-03T12:27:35.695Z,10.87
2023-04-03T12:30:02.284Z,10.68
2023-04-03T12:32:44.006Z,10.84
2023-04-03T12:35:22.700Z,10.97
2023-04-03T12:38:16.821Z,11.54
2023-04-03T12:40:43.223Z,11.29
2023-04-03T12:43:24.643Z,11.17
2023-04-03T12:46:04.810Z,10.83
2023-04-03T12:48:48.415Z,10.79
2023-04-03T12:51:18.517Z,10.61
2023-04-03T12:53:46.248Z,10.57
2023-04-03T12:56:26.327Z,10.45
2023-04-03T12:58:54.768Z,10.57
2023-04-03T13:01:27.722Z,10.10
2023-04-03T13:03:59.340Z,9.93
2023-04-03T13:06:32.089Z,10.12
2023-04-03T13:09:05.073Z,9.85
2023-04-03T13:11:37.209Z,9.66
2023-04-03T13:14:06.899Z,9.84
2023-04-03T13:16:34.710Z,9.86
2023-04-03T13:19:01.540Z,10.16
2023-04-03T13:21:31.389Z,10.16
2023-04-03T13:24:13.996Z,10.17
2023-04-03T13:26:42.189Z,10.07
2023-04-03T13:29:29.816Z,10.11
2023-04-03T13:31:59.540Z,10.36
2023-04-03T13:34:30.249Z,10.39
2023-04-03T13:37:01.478Z,10.22
2023-04-03T13:39:33.966Z,10.16
2023-04-03T13:42:15.063Z,10.21
2023-04-03T13:44:41.981Z,10.31
2023-04-03T13:47:11.778Z,10.42
2023-04-03T13:49:47.510Z,10.37
2023-04-03T13:52:32.110Z,10.19
2023-04-03T13:57:54.503Z,10.25
2023-04-03T14:00:30.348Z,10.14
2023-04-03T14:02:57.999Z,10.02
2023-04-03T14:05:27.567Z,9.91
2023-04-03T14:07:56.347Z,9.90
2023-04-03T14:10:23.300Z,9.97
2023-04-03T14:12:51.706Z,10.07
2023-04-03T14:15:24.611Z,10.24
2023-04-03T14:17:54.806Z,10.17
2023-04-03T14:20:24.772Z,9.82
2023-04-03T14:22:52.267Z,9.69
2023-04-03T14:25:20.306Z,9.52
2023-04-03T14:27:49.929Z,9.53
2023-04-03T14:30:23.813Z,9.44
2023-04-03T14:32:50.969Z,9.30
2023-04-03T14:35:19.713Z,9.29
2023-04-03T14:37:47.090Z,9.50
2023-04-03T14:40:20.925Z,9.46
2023-04-03T14:42:49.534Z,9.74
2023-04-03T14:45:17.502Z,9.75
2023-04-03T14:47:49.895Z,9.89
2023-04-03T14:50:22.212Z,9.87
2023-04-03T14:52:49.999Z,9.81
2023-04-03T14:55:19.163Z,9.86
2023-04-03T14:57:46.238Z,9.66
2023-04-03T15:00:18.248Z,9.71
2023-04-03T15:02:46.002Z,9.66
2023-04-03T15:05:13.648Z,9.53
2023-04-03T15:07:43.284Z,9.53
2023-04-03T15:10:28.616Z,9.57
2023-04-03T15:12:55.690Z,9.73
2023-04-03T15:15:23.554Z,9.67
2023-04-03T15:17:55.315Z,9.78
2023-04-03T15:20:25.074Z,9.65
2023-04-03T15:22:51.746Z,9.67
2023-04-03T15:25:19.210Z,9.75
2023-04-03T15:27:45.956Z,9.64
2023-04-03T15:30:16.677Z,9.50
2023-04-03T15:32:43.557Z,9.22
2023-04-03T15:35:10.428Z,9.27
2023-04-03T15:37:37.183Z,9.29
2023-04-03T15:40:05.974Z,9.35
2023-04-03T15:42:32.645Z,9.31
2023-04-03T15:44:59.657Z,9.01
2023-04-03T15:47:27.819Z,8.86
2023-04-03T15:49:55.969Z,9.06
2023-04-03T15:52:22.530Z,9.22
2023-04-03T15:54:49.020Z,9.25
2023-04-03T15:57:15.552Z,9.32
2023-04-03T15:59:42.127Z,9.07
2023-04-03T16:02:11.293Z,9.05
2023-04-03T16:04:37.814Z,9.04
2023-04-03T16:07:05.274Z,9.00
2023-04-03T16:09:35.249Z,9.05
2023-04-03T16:12:02.957Z,9.06
2023-04-03T16:14:31.218Z,8.87
2023-04-03T16:16:59.766Z,8.73
2023-04-03T16:19:26.488Z,8.67
2023-04-03T16:21:54.822Z,8.81
2023-04-03T16:24:21.395Z,8.59
2023-04-03T16:26:47.894Z,8.73
2023-04-03T16:29:14.384Z,8.52
2023-04-03T16:31:41.155Z,8.56
2023-04-03T16:34:07.734Z,8.62
2023-04-03T16:36:34.257Z,8.67
2023-04-03T16:39:00.747Z,8.62
2023-04-03T16:41:27.268Z,8.73
2023-04-03T16:43:53.856Z,8.66
2023-04-03T16:46:20.509Z,8.51
2023-04-03T16:48:47.047Z,8.51
2023-04-03T16:51:14.371Z,8.50
2023-04-03T16:53:40.934Z,8.38
2023-04-03T16:56:07.430Z,8.20
2023-04-03T16:58:33.921Z,8.09
2023-04-03T17:01:10.110Z,8.00
2023-04-03T17:03:36.669Z,8.09
2023-04-03T17:06:03.349Z,8.04
2023-04-03T17:08:29.856Z,7.99
2023-04-03T17:10:56.544Z,8.00
2023-04-03T17:13:23.124Z,7.91
2023-04-03T17:15:49.874Z,7.91
2023-04-03T17:18:16.519Z,7.92
2023-04-03T17:20:43.045Z,7.81
2023-04-03T17:23:09.605Z,7.55
2023-04-03T17:25:36.191Z,7.34
2023-04-03T17:28:02.759Z,7.62
2023-04-03T17:30:29.197Z,7.58
2023-04-03T17:32:55.800Z,7.62
2023-04-03T17:35:22.297Z,7.48
2023-04-03T17:37:50.527Z,7.50
2023-04-03T17:40:18.734Z,7.47
2023-04-03T17:42:45.609Z,7.27
2023-04-03T17:45:12.219Z,7.43
2023-04-03T17:47:38.750Z,7.61
2023-04-03T17:50:06.046Z,7.47
2023-04-03T17:52:32.573Z,7.37
2023-04-03T17:54:59.052Z,7.39
2023-04-03T17:57:25.652Z,7.49
2023-04-03T17:59:53.987Z,7.30
2023-04-03T18:02:20.824Z,7.51
2023-04-03T18:04:47.341Z,7.38
2023-04-03T18:07:13.867Z,7.45
2023-04-03T18:09:41.299Z,7.47
2023-04-03T18:12:09.882Z,7.54
2023-04-03T18:14:38.113Z,7.48
2023-04-03T18:17:04.781Z,7.53
2023-04-03T18:19:31.891Z,7.44
2023-04-03T18:22:03.091Z,7.13
2023-04-03T18:24:33.325Z,7.35
2023-04-03T18:27:22.116Z,7.17
2023-04-03T18:29:52.188Z,7.12
2023-04-03T18:32:20.524Z,7.17
2023-04-03T18:34:47.190Z,7.17
2023-04-03T18:37:15.148Z,7.14
2023-04-03T18:39:41.877Z,7.31
2023-04-03T18:42:11.922Z,7.32
2023-04-03T18:44:40.828Z,7.28
2023-04-03T18:47:08.214Z,7.04
2023-04-03T18:49:37.753Z,6.86
2023-04-03T18:52:04.710Z,6.98
2023-04-03T18:54:32.063Z,6.88
2023-04-03T18:56:59.114Z,7.07
2023-04-03T18:59:25.895Z,6.90
2023-04-03T19:01:52.536Z,6.84
2023-04-03T19:04:19.055Z,6.58
2023-04-03T19:06:45.713Z,6.54
2023-04-03T19:09:12.299Z,6.50
2023-04-03T19:11:38.827Z,6.36
2023-04-03T19:14:16.247Z,6.56
2023-04-03T19:16:44.935Z,6.71
2023-04-03T19:19:12.130Z,6.54
2023-04-03T19:21:41.292Z,6.74
2023-04-03T19:24:10.960Z,6.40
2023-04-03T19:26:37.954Z,6.52
2023-04-03T19:29:04.810Z,6.47
2023-04-03T19:31:33.419Z,6.54
2023-04-03T19:34:00.951Z,6.51
2023-04-03T19:36:27.484Z,6.72
2023-04-03T19:38:54.044Z,6.65
2023-04-03T19:41:23.625Z,6.46
2023-04-03T19:43:55.854Z,6.50
2023-04-03T19:46:24.485Z,6.46
2023-04-03T19:48:51.244Z,6.30
2023-04-03T19:51:18.439Z,6.42
2023-04-03T19:53:45.231Z,6.27
2023-04-03T19:56:11.826Z,6.33
2023-04-03T19:58:39.450Z,6.34
2023-04-03T20:01:05.953Z,6.42
2023-04-03T20:03:32.681Z,6.33
2023-04-03T20:05:59.220Z,6.33
2023-04-03T20:08:28.352Z,6.33
2023-04-03T20:10:56.073Z,6.06
2023-04-03T20:13:22.642Z,6.20
2023-04-03T20:15:49.217Z,6.02
2023-04-03T20:18:20.482Z,5.88
2023-04-03T20:20:58.511Z,6.08
2023-04-03T20:23:28.142Z,6.07
2023-04-03T20:26:08.670Z,6.17
2023-04-03T20:28:38.318Z,6.11
2023-04-03T20:31:05.359Z,6.10
2023-04-03T20:33:32.020Z,5.92
2023-04-03T20:35:58.817Z,5.88
2023-04-03T20:38:25.649Z,5.97
2023-04-03T20:40:52.487Z,6.07
2023-04-03T20:43:19.622Z,5.97
2023-04-03T20:45:46.112Z,5.94
2023-04-03T20:48:13.189Z,5.92
2023-04-03T20:50:41.255Z,6.02
2023-04-03T20:53:08.932Z,5.99
2023-04-03T20:55:35.570Z,5.91
2023-04-03T20:58:02.252Z,5.75
2023-04-03T21:00:29.549Z,5.56
2023-04-03T21:02:57.852Z,5.43
2023-04-03T21:05:26.276Z,5.72
2023-04-03T21:08:32.029Z,5.79
2023-04-03T21:11:36.471Z,5.74
2023-04-03T21:14:42.456Z,5.54
2023-04-03T21:17:08.921Z,5.27
2023-04-03T21:19:40.142Z,5.39
2023-04-03T21:22:06.945Z,5.38
2023-04-03T21:24:33.497Z,5.40
2023-04-03T21:26:59.974Z,5.27
2023-04-03T21:29:26.500Z,5.34
2023-04-03T21:31:57.797Z,5.37
2023-04-03T21:34:27.625Z,5.33
2023-04-03T21:36:55.459Z,5.43
2023-04-03T21:39:23.096Z,5.39
2023-04-03T21:41:52.009Z,5.47
2023-04-03T21:44:20.293Z,5.47
2023-04-03T21:46:48.023Z,5.51
2023-04-03T21:49:14.964Z,5.48
2023-04-03T21:51:42.330Z,5.48
2023-04-03T21:54:09.250Z,5.39
2023-04-03T21:56:35.801Z,5.48
2023-04-03T21:59:05.449Z,5.42
2023-04-03T22:01:32.475Z,5.45
2023-04-03T22:03:59.581Z,5.55
2023-04-03T22:06:26.561Z,5.36
2023-04-03T22:08:53.238Z,5.30
2023-04-03T22:11:22.965Z,5.27
2023-04-03T22:13:52.431Z,5.30
2023-04-03T22:16:19.392Z,5.14
2023-04-03T22:18:46.058Z,5.02
2023-04-03T22:21:12.578Z,4.95
2023-04-03T22:23:39.581Z,5.09
2023-04-03T22:26:08.078Z,4.89
2023-04-03T22:28:45.873Z,4.98
2023-04-03T22:31:14.228Z,4.86
2023-04-03T22:33:42.249Z,4.87
2023-04-03T22:36:10.759Z,4.90
2023-04-03T22:38:38.911Z,5.08
2023-04-03T22:41:07.229Z,4.91
2023-04-03T22:43:36.470Z,5.10
2023-04-03T22:46:05.111Z,4.90
2023-04-03T22:48:31.959Z,4.91
2023-04-03T22:50:59.977Z,4.72
2023-04-03T22:53:29.526Z,4.60
2023-04-03T22:56:01.150Z,4.65
2023-04-03T22:58:28.917Z,4.85
2023-04-03T23:01:04.242Z,4.86
2023-04-03T23:03:30.813Z,4.56
2023-04-03T23:05:57.472Z,4.64
2023-04-03T23:08:24.177Z,4.54
2023-04-03T23:10:55.662Z,4.65
2023-04-03T23:13:22.992Z,4.71
2023-04-03T23:15:56.800Z,4.56
2023-04-03T23:18:23.806Z,4.47
2023-04-03T23:20:55.050Z,4.47
2023-04-03T23:23:23.586Z,4.55
2023-04-03T23:25:53.684Z,4.54
2023-04-03T23:28:20.888Z,4.56
2023-04-03T23:30:48.216Z,4.50
2023-04-03T23:33:15.123Z,4.57
2023-04-03T23:35:46.697Z,4.57
2023-04-03T23:38:13.723Z,4.56
2023-04-03T23:40:41.990Z,4.35
2023-04-03T23:43:08.875Z,4.38
2023-04-03T23:45:35.744Z,4.43
2023-04-03T23:48:02.310Z,4.40
2023-04-03T23:50:28.824Z,4.33
2023-04-03T23:52:55.544Z,4.32
2023-04-03T23:55:22.129Z,4.39
2023-04-03T23:57:48.641Z,4.42
